Skip to main content

NOAA/GLERL Met Station at Muskegon, MI

Previous 5 days (top of hour only)
See also Previous 3 Hours (2 minute increments)
Jump down to Data
Switch to [English][Metric]
Zoom: Click and drag, Pan: shift-click and drag, Unzoom: double-click, Unzoom All






Note: Speed = mean wind during 2-minute period at top of hour,
Gust = max wind during 2-minute period at top of hour,
Peak = max wind during entire hour.
• See also 5-day windrose plot


NOAA/GLERL Met Station at Muskegon, MI

Previous 5 days (top of hour only)
See also Previous 3 Hours (2 minute increments)
Jump up to Graphs
Switch to [English][Metric]
                  Wind  Wind  Wind   Air   Dew   Rel     Sta   PAR
                   Spd   Gst   Dir  Temp    Pt   Hum    Pres uE/m2/
YYYY-MM-DD   EDT   kts   kts   deg     F     F     %   in Hg   sec
2019-10-15 00:00 -99.0 -99.0   -99   0.0   0.0   0.0    0.00     0
2019-10-14 15:00  13.2  15.4   297  47.3  37.2  67.6   29.42  2007
2019-10-14 14:00  14.0  15.4   288  47.1  36.4  66.1   29.42  1794
2019-10-14 13:00  13.6  15.2   297  46.4  37.8  71.7   29.42  1111
2019-10-14 12:00   9.1  11.9   304  46.0  36.9  70.0   29.41  1453
2019-10-14 11:00  12.4  14.4   304  45.7  38.2  74.7   29.41   750
2019-10-14 10:00  12.8  15.7   305  45.7  37.2  71.9   29.40   442
2019-10-14 09:00  13.4  15.2   307  45.9  37.1  71.3   29.36   266
2019-10-14 08:00  13.4  16.3   310  45.7  37.2  71.8   29.34    15
2019-10-14 07:00  15.2  16.9   299  45.3  37.6  74.0   29.32     2
2019-10-14 06:00  16.5  18.7   318  45.5  36.4  70.1   29.31     2
2019-10-14 05:00  20.6  25.3   308  46.0  37.6  72.0   29.30     2
2019-10-14 04:00  19.2  20.6   300  45.9  36.8  70.2   29.28     2
2019-10-14 03:00  19.8  22.4   321  46.0  35.9  67.3   29.27     2
2019-10-14 02:00  21.0  22.6   313  46.4  36.2  67.4   29.27     2
2019-10-14 01:00  22.6  24.5   312  46.6  36.9  68.8   29.26     2
2019-10-14 00:00  22.6  26.6   308  46.8  37.1  68.8   29.25     2
2019-10-13 23:00  22.9  26.8   308  46.9  35.7  64.7   29.26     2
2019-10-13 22:00  21.8  25.7   299  47.5  39.2  72.6   29.25     2
2019-10-13 21:00  23.9  26.8   300  47.3  38.5  71.2   29.24     2
2019-10-13 20:00  21.0  24.9   293  46.6  37.0  69.0   29.23     2
2019-10-13 19:00  20.2  26.0   291  46.8  37.1  68.9   29.21    21
2019-10-13 18:00  24.5  29.2   292  46.8  37.3  69.3   29.20   195
2019-10-13 17:00  22.0  24.9   288  46.9  37.0  68.1   29.19   165
2019-10-13 16:00  25.9  28.0   281  46.8  38.8  73.5   29.17   175
2019-10-13 15:00  22.6  25.1   290  46.2  38.5  74.1   29.17    79
2019-10-13 14:00  24.9  27.2   286  45.9  37.0  70.9   29.17   293
2019-10-13 13:00  26.0  30.7   286  45.7  38.0  74.2   29.17   207
2019-10-13 12:00  24.9  29.7   286  45.9  38.4  75.0   29.16   165
2019-10-13 11:00  19.1  22.4   277  46.4  39.8  77.6   29.16    86
2019-10-13 10:00  22.7  27.0   279  46.8  39.7  76.3   29.14    76
2019-10-13 09:00  27.0  29.9   258  48.6  40.2  72.5   29.14    39
2019-10-13 08:00  24.3  28.6   251  48.9  38.8  67.8   29.14     3
2019-10-13 07:00  22.6  25.3   271  48.9  39.1  68.6   29.14     2
2019-10-13 06:00  18.5  21.2   274  48.2  39.5  71.5   29.14     2
2019-10-13 05:00  20.8  24.3   271  48.0  39.6  72.2   29.16     2
2019-10-13 04:00  16.3  19.2   280  47.7  39.6  73.3   29.15     2
2019-10-13 03:00  14.0  16.5   264  47.5  39.9  74.7   29.16     2
2019-10-13 02:00  12.6  14.0   291  46.8  40.2  77.6   29.17     2
2019-10-13 01:00  10.1  12.4   306  46.9  40.6  78.5   29.18     2
2019-10-13 00:00   9.1  10.5   317  46.2  40.6  80.5   29.19     2
2019-10-12 23:00  17.3  19.6   330  48.4  42.0  78.4   29.19     2
2019-10-12 22:00  31.3  34.0   237  54.9  40.2  57.4   29.16     2
2019-10-12 21:00  35.6  41.8   230  55.0  40.8  58.4   29.16     2
2019-10-12 20:00  34.6  42.2   225  54.0  40.4  59.8   29.17     2
2019-10-12 19:00  33.0  35.8   223  52.7  38.6  58.3   29.19    28
2019-10-12 18:00  26.8  29.7   232  51.3  37.7  59.5   29.20   237
2019-10-12 17:00  26.2  32.3   239  50.2  38.0  62.5   29.23   408
2019-10-12 16:00  29.7  33.4   236  48.7  36.4  62.0   29.23   735
2019-10-12 15:00  28.4  32.3   237  47.3  36.2  65.1   29.26  1331
2019-10-12 14:00  28.4  31.9   236  46.8  36.5  67.1   29.29  1056
2019-10-12 13:00  27.0  32.3   242  45.7  35.1  66.3   29.31  1679
2019-10-12 12:00  25.9  30.5   248  44.6  34.1  66.3   29.32  1114
2019-10-12 11:00  27.2  32.3   251  44.4  35.2  69.7   29.33   498
2019-10-12 10:00  23.5  28.4   259  44.4  33.9  66.3   29.33   351
2019-10-12 09:00  24.5  28.2   264  44.2  34.4  67.9   29.33   103
2019-10-12 08:00  24.1  28.6   257  44.8  36.3  71.8   29.32     6
2019-10-12 07:00  22.9  25.7   260  44.8  35.5  69.6   29.32     2
2019-10-12 06:00  25.5  29.4   281  44.6  35.0  68.7   29.30     2
2019-10-12 05:00  25.1  28.0   280  44.8  36.0  70.9   29.30     2
2019-10-12 04:00  26.0  28.8   265  45.0  35.2  68.3   29.31     2
2019-10-12 03:00  22.9  27.8   274  44.8  34.1  65.8   29.32     2
2019-10-12 02:00  18.7  25.7   272  45.5  35.9  68.7   29.32     2
2019-10-12 01:00  24.1  28.0   294  45.9  36.6  69.9   29.33     2
2019-10-12 00:00  22.4  25.3   279  46.6  37.8  71.2   29.32     2
2019-10-11 23:00  23.5  26.4   298  46.9  38.5  72.1   29.33     2
2019-10-11 22:00  22.7  26.2   294  48.4  41.8  77.7   29.31     2
2019-10-11 21:00  21.2  26.2   282  49.3  43.2  79.2   29.29     2
2019-10-11 20:00  23.3  25.1   278  49.6  46.1  87.3   29.28     2
2019-10-11 19:00  24.9  26.8   285  49.6  46.7  89.4   29.25     6
2019-10-11 18:00  18.5  20.4   292  51.4  47.6  86.7   29.21    96
2019-10-11 17:00  18.5  19.4   291  53.1  50.7  91.7   29.21    59
2019-10-11 16:00  19.6  21.6   284  56.3  53.6  90.5   29.19    86
2019-10-11 15:00  20.2  22.0   281  60.3  58.5  93.7   29.16   224
2019-10-11 14:00  20.6  24.7   177  64.4  62.4  93.1   29.13   150
2019-10-11 13:00  12.6  16.1   160  63.7  61.7  93.2   29.17   131
2019-10-11 12:00  15.9  19.8   159  63.5  61.1  91.9   29.20   126
2019-10-11 11:00  13.2  17.5   163  64.4  60.2  86.0   29.22   275
2019-10-11 10:00  10.5  20.0   150  64.0  60.1  86.7   29.24   114
2019-10-11 09:00  10.3  14.8   153  63.3  59.8  88.2   29.25   164
2019-10-11 08:00  10.5  16.3   145  62.2  59.5  90.7   29.25     7
2019-10-11 07:00  11.1  17.3   146  61.5  59.4  92.5   29.27     2
2019-10-11 06:00   9.7  15.2   145  61.2  59.4  93.9   29.28     2
2019-10-11 05:00  14.8  18.5   167  61.5  58.5  89.6   29.30     2
2019-10-11 04:00   8.9  12.1   119  60.6  56.5  86.0   29.29     2
2019-10-11 03:00  11.5  14.4   106  60.1  56.9  89.0   29.31     2
2019-10-11 02:00  12.2  16.7   114  60.4  57.0  88.2   29.33     2
2019-10-11 01:00  11.7  15.0   142  64.0  55.1  72.3   29.35     2
2019-10-11 00:00  14.0  19.4   139  65.7  54.5  66.8   29.35     2
2019-10-10 23:00  13.0  17.9   132  65.8  55.1  68.0   29.35     2
2019-10-10 22:00  13.8  18.9   140  66.6  55.1  66.1   29.36     2
2019-10-10 21:00  11.3  14.2   132  66.9  55.4  66.0   29.37     2
2019-10-10 20:00   9.1  12.2   125  67.8  56.0  65.5   29.38     2
2019-10-10 19:00   7.8   9.5   124  68.7  56.2  63.9   29.39    18
2019-10-10 18:00   6.0   7.6   140  70.2  56.2  60.8   29.39   160
2019-10-10 17:00   8.6  10.3   185  69.3  57.1  64.9   29.40   923
2019-10-10 16:00   8.6  10.9   164  73.9  56.0  52.9   29.41  1255
2019-10-10 15:00  13.6  16.3   168  73.0  55.5  53.7   29.43  1887
2019-10-10 14:00   9.5  12.2   142  70.2  56.6  61.6   29.46  1387
2019-10-10 13:00   7.6  11.7   143  69.4  56.3  62.5   29.49  2087
2019-10-10 12:00   6.2   9.5   126  64.6  54.6  69.8   29.50  1086
2019-10-10 11:00   7.0  10.3   119  60.1  52.3  75.2   29.51   887
2019-10-10 10:00   9.7  12.1   110  56.8  50.4  78.7   29.51   520
2019-10-10 09:00   7.8  10.3   103  54.7  49.0  80.9   29.50   790
2019-10-10 08:00   8.9  11.3   108  53.4  48.8  84.0   29.51    18
2019-10-10 07:00   9.9  12.1   123  53.6  49.0  84.2   29.52     2
2019-10-10 06:00   7.8  10.7   111  53.8  49.1  84.0   29.52     2
2019-10-10 05:00   7.8   9.9   117  54.0  49.0  83.0   29.52     2
2019-10-10 04:00   9.3  12.4   108  54.5  48.6  80.3   29.51     2
2019-10-10 03:00  10.9  14.2   107  54.7  47.9  77.7   29.51     2
2019-10-10 02:00  13.8  16.5   126  55.2  47.2  74.2   29.52     2
2019-10-10 01:00  12.4  15.6   134  55.9  48.2  75.0   29.52     2
2019-10-10 00:00  10.3  14.6   140  57.4  48.6  72.3   29.53     2
2019-10-09 23:00   9.3  14.0   140  58.6  49.0  70.0   29.52     2
2019-10-09 22:00   8.0   9.3   118  58.6  50.0  72.7   29.52     2
2019-10-09 21:00   7.2   8.4   124  59.4  50.2  71.4   29.51     2
2019-10-09 20:00   6.6   7.0   132  60.6  48.8  64.6   29.51     2